Terminal Aerodrome Forecast
Issued by NWS Upton, NY

Home | Current Version | Previous Version | Text Only | Print | Product List | Glossary On
Versions: 1 2 3 4 5 6 7 8 9 10 11 12 13 14 15 16 17 18 19 20 21 22 23 24 25 26 27 28 29 30 31 32 33 34 35
000
FTUS41 KOKX 300840 AAA
TAFISP
TAF AMD
KISP 300840Z 3009/3106 VRB04KT P6SM FEW060 SCT150
      TEMPO 3009/3012 5SM BR
     FM301200 05005KT P6SM SCT040 BKN150
     FM301600 16006KT P6SM BKN050 BKN120
     FM310000 16003KT P6SM SCT020 BKN050 BKN120 PROB30 3100/3106 6SM
      -SHRA=

USA.gov is the U.S. government's official web portal to all federal, state and local government web resources and services.